sensor_id;sensor_type;location;lat;lon;timestamp;P1;durP1;ratioP1;P2;durP2;ratioP2
80576;SDS011;69937;52.420;10.538;2023-06-19T00:01:08;6.05;;;4.65;;
80576;SDS011;69937;52.420;10.538;2023-06-19T00:06:09;7.38;;;4.93;;
80576;SDS011;69937;52.420;10.538;2023-06-19T00:11:12;7.38;;;5.03;;
80576;SDS011;69937;52.420;10.538;2023-06-19T00:16:12;6.07;;;4.88;;
80576;SDS011;69937;52.420;10.538;2023-06-19T00:21:13;6.72;;;4.75;;
80576;SDS011;69937;52.420;10.538;2023-06-19T00:26:13;6.93;;;4.82;;
80576;SDS011;69937;52.420;10.538;2023-06-19T00:31:15;8.18;;;5.00;;
80576;SDS011;69937;52.420;10.538;2023-06-19T00:36:16;6.15;;;4.70;;
80576;SDS011;69937;52.420;10.538;2023-06-19T00:41:21;7.53;;;4.97;;
80576;SDS011;69937;52.420;10.538;2023-06-19T00:46:22;5.68;;;4.85;;
80576;SDS011;69937;52.420;10.538;2023-06-19T00:51:23;5.53;;;4.35;;
80576;SDS011;69937;52.420;10.538;2023-06-19T00:56:23;8.25;;;5.15;;
80576;SDS011;69937;52.420;10.538;2023-06-19T01:01:24;6.22;;;5.05;;
80576;SDS011;69937;52.420;10.538;2023-06-19T01:06:27;8.07;;;5.15;;
80576;SDS011;69937;52.420;10.538;2023-06-19T01:11:39;9.88;;;4.82;;
80576;SDS011;69937;52.420;10.538;2023-06-19T01:16:44;7.45;;;5.40;;
80576;SDS011;69937;52.420;10.538;2023-06-19T01:21:47;7.25;;;4.55;;
80576;SDS011;69937;52.420;10.538;2023-06-19T01:26:49;6.45;;;4.78;;
80576;SDS011;69937;52.420;10.538;2023-06-19T01:36:53;5.75;;;4.68;;
80576;SDS011;69937;52.420;10.538;2023-06-19T01:41:57;6.05;;;5.00;;
80576;SDS011;69937;52.420;10.538;2023-06-19T01:46:58;7.07;;;5.22;;
80576;SDS011;69937;52.420;10.538;2023-06-19T01:51:59;5.78;;;4.70;;
80576;SDS011;69937;52.420;10.538;2023-06-19T01:57:00;11.23;;;4.85;;
80576;SDS011;69937;52.420;10.538;2023-06-19T02:02:02;7.95;;;5.75;;
80576;SDS011;69937;52.420;10.538;2023-06-19T02:07:04;5.93;;;4.47;;
80576;SDS011;69937;52.420;10.538;2023-06-19T02:12:05;6.65;;;5.05;;
80576;SDS011;69937;52.420;10.538;2023-06-19T02:17:06;7.68;;;5.47;;
80576;SDS011;69937;52.420;10.538;2023-06-19T02:22:06;6.18;;;5.10;;
80576;SDS011;69937;52.420;10.538;2023-06-19T02:27:07;6.00;;;4.88;;
80576;SDS011;69937;52.420;10.538;2023-06-19T02:32:07;6.05;;;5.22;;
80576;SDS011;69937;52.420;10.538;2023-06-19T02:37:08;6.40;;;5.70;;
80576;SDS011;69937;52.420;10.538;2023-06-19T02:42:08;6.95;;;5.40;;
80576;SDS011;69937;52.420;10.538;2023-06-19T02:47:09;9.93;;;5.50;;
80576;SDS011;69937;52.420;10.538;2023-06-19T02:52:09;6.53;;;4.85;;
80576;SDS011;69937;52.420;10.538;2023-06-19T02:57:10;6.55;;;5.22;;
80576;SDS011;69937;52.420;10.538;2023-06-19T03:02:10;6.43;;;4.82;;
80576;SDS011;69937;52.420;10.538;2023-06-19T03:07:11;6.68;;;4.72;;
80576;SDS011;69937;52.420;10.538;2023-06-19T03:12:13;7.70;;;5.55;;
80576;SDS011;69937;52.420;10.538;2023-06-19T03:17:14;7.88;;;5.38;;
80576;SDS011;69937;52.420;10.538;2023-06-19T03:22:14;6.53;;;5.15;;
80576;SDS011;69937;52.420;10.538;2023-06-19T03:27:15;5.88;;;4.68;;
80576;SDS011;69937;52.420;10.538;2023-06-19T03:32:15;8.93;;;5.70;;
80576;SDS011;69937;52.420;10.538;2023-06-19T03:37:16;5.95;;;4.70;;
80576;SDS011;69937;52.420;10.538;2023-06-19T03:42:17;6.30;;;5.10;;
80576;SDS011;69937;52.420;10.538;2023-06-19T03:47:17;7.40;;;4.72;;
80576;SDS011;69937;52.420;10.538;2023-06-19T03:52:18;7.28;;;4.93;;
80576;SDS011;69937;52.420;10.538;2023-06-19T03:57:19;6.72;;;5.07;;
80576;SDS011;69937;52.420;10.538;2023-06-19T04:02:19;6.25;;;5.20;;
80576;SDS011;69937;52.420;10.538;2023-06-19T04:07:19;5.75;;;4.75;;
80576;SDS011;69937;52.420;10.538;2023-06-19T04:12:20;8.18;;;5.13;;
80576;SDS011;69937;52.420;10.538;2023-06-19T04:17:21;7.18;;;5.05;;
80576;SDS011;69937;52.420;10.538;2023-06-19T04:22:21;10.20;;;5.45;;
80576;SDS011;69937;52.420;10.538;2023-06-19T04:27:22;6.50;;;5.13;;
80576;SDS011;69937;52.420;10.538;2023-06-19T04:32:22;10.77;;;4.85;;
80576;SDS011;69937;52.420;10.538;2023-06-19T04:37:23;7.45;;;4.78;;
80576;SDS011;69937;52.420;10.538;2023-06-19T04:42:24;5.88;;;5.25;;
80576;SDS011;69937;52.420;10.538;2023-06-19T04:47:24;8.73;;;5.80;;
80576;SDS011;69937;52.420;10.538;2023-06-19T04:52:25;6.63;;;5.35;;
80576;SDS011;69937;52.420;10.538;2023-06-19T04:57:26;7.38;;;5.85;;
80576;SDS011;69937;52.420;10.538;2023-06-19T05:02:26;7.60;;;5.80;;
80576;SDS011;69937;52.420;10.538;2023-06-19T05:07:27;9.07;;;6.32;;
80576;SDS011;69937;52.420;10.538;2023-06-19T05:12:27;8.32;;;5.88;;
80576;SDS011;69937;52.420;10.538;2023-06-19T05:17:28;6.93;;;4.35;;
80576;SDS011;69937;52.420;10.538;2023-06-19T05:22:28;9.25;;;5.80;;
80576;SDS011;69937;52.420;10.538;2023-06-19T05:27:29;8.25;;;6.10;;
80576;SDS011;69937;52.420;10.538;2023-06-19T05:32:29;7.20;;;5.57;;
80576;SDS011;69937;52.420;10.538;2023-06-19T05:37:30;8.80;;;5.90;;
80576;SDS011;69937;52.420;10.538;2023-06-19T05:42:31;8.10;;;6.57;;
80576;SDS011;69937;52.420;10.538;2023-06-19T05:47:31;11.43;;;5.95;;
80576;SDS011;69937;52.420;10.538;2023-06-19T05:52:32;8.38;;;5.88;;
80576;SDS011;69937;52.420;10.538;2023-06-19T05:57:32;7.22;;;4.95;;
80576;SDS011;69937;52.420;10.538;2023-06-19T06:02:33;10.75;;;6.10;;
80576;SDS011;69937;52.420;10.538;2023-06-19T06:07:34;8.50;;;5.88;;
80576;SDS011;69937;52.420;10.538;2023-06-19T06:12:35;8.57;;;5.43;;
80576;SDS011;69937;52.420;10.538;2023-06-19T06:17:36;7.10;;;5.45;;
80576;SDS011;69937;52.420;10.538;2023-06-19T06:22:36;8.25;;;5.93;;
80576;SDS011;69937;52.420;10.538;2023-06-19T06:27:41;8.52;;;5.88;;
80576;SDS011;69937;52.420;10.538;2023-06-19T06:32:42;7.97;;;5.88;;
80576;SDS011;69937;52.420;10.538;2023-06-19T06:37:43;7.50;;;5.70;;
80576;SDS011;69937;52.420;10.538;2023-06-19T06:42:46;9.20;;;5.70;;
80576;SDS011;69937;52.420;10.538;2023-06-19T06:47:47;7.63;;;6.28;;
80576;SDS011;69937;52.420;10.538;2023-06-19T06:52:47;9.55;;;5.72;;
80576;SDS011;69937;52.420;10.538;2023-06-19T06:57:48;7.63;;;6.03;;
80576;SDS011;69937;52.420;10.538;2023-06-19T07:02:48;6.90;;;5.50;;
80576;SDS011;69937;52.420;10.538;2023-06-19T07:07:50;11.50;;;5.85;;
80576;SDS011;69937;52.420;10.538;2023-06-19T07:12:51;10.35;;;6.43;;
80576;SDS011;69937;52.420;10.538;2023-06-19T07:17:51;11.93;;;6.10;;
80576;SDS011;69937;52.420;10.538;2023-06-19T07:22:52;8.32;;;5.63;;
80576;SDS011;69937;52.420;10.538;2023-06-19T07:27:53;8.30;;;5.28;;
80576;SDS011;69937;52.420;10.538;2023-06-19T07:32:54;8.07;;;5.38;;
80576;SDS011;69937;52.420;10.538;2023-06-19T07:37:54;7.65;;;5.03;;
80576;SDS011;69937;52.420;10.538;2023-06-19T07:42:55;6.10;;;4.90;;
80576;SDS011;69937;52.420;10.538;2023-06-19T07:47:56;7.20;;;5.55;;
80576;SDS011;69937;52.420;10.538;2023-06-19T07:52:57;7.78;;;4.80;;
80576;SDS011;69937;52.420;10.538;2023-06-19T07:57:58;6.93;;;5.03;;
80576;SDS011;69937;52.420;10.538;2023-06-19T08:02:58;7.32;;;4.75;;
80576;SDS011;69937;52.420;10.538;2023-06-19T08:07:59;6.97;;;5.60;;
80576;SDS011;69937;52.420;10.538;2023-06-19T08:13:00;6.93;;;5.50;;
80576;SDS011;69937;52.420;10.538;2023-06-19T08:18:00;7.28;;;5.13;;
80576;SDS011;69937;52.420;10.538;2023-06-19T08:23:02;6.82;;;5.03;;
80576;SDS011;69937;52.420;10.538;2023-06-19T08:28:02;6.93;;;5.20;;
80576;SDS011;69937;52.420;10.538;2023-06-19T08:33:04;6.30;;;5.05;;
80576;SDS011;69937;52.420;10.538;2023-06-19T08:38:05;7.10;;;4.90;;
80576;SDS011;69937;52.420;10.538;2023-06-19T08:43:05;7.95;;;4.95;;
80576;SDS011;69937;52.420;10.538;2023-06-19T08:48:06;13.45;;;5.30;;
80576;SDS011;69937;52.420;10.538;2023-06-19T08:53:08;7.55;;;4.63;;
80576;SDS011;69937;52.420;10.538;2023-06-19T08:58:09;7.05;;;5.30;;
80576;SDS011;69937;52.420;10.538;2023-06-19T09:03:10;11.25;;;5.50;;
80576;SDS011;69937;52.420;10.538;2023-06-19T09:08:12;7.35;;;5.20;;
80576;SDS011;69937;52.420;10.538;2023-06-19T09:13:13;8.18;;;5.40;;
80576;SDS011;69937;52.420;10.538;2023-06-19T09:18:16;9.25;;;5.80;;
80576;SDS011;69937;52.420;10.538;2023-06-19T09:23:17;8.00;;;5.53;;
80576;SDS011;69937;52.420;10.538;2023-06-19T09:28:24;7.15;;;5.30;;
80576;SDS011;69937;52.420;10.538;2023-06-19T09:33:26;7.60;;;5.57;;
80576;SDS011;69937;52.420;10.538;2023-06-19T09:38:29;9.00;;;5.85;;
80576;SDS011;69937;52.420;10.538;2023-06-19T09:48:43;9.27;;;5.32;;
80576;SDS011;69937;52.420;10.538;2023-06-19T09:53:46;7.05;;;5.40;;
80576;SDS011;69937;52.420;10.538;2023-06-19T09:58:48;9.82;;;5.28;;
80576;SDS011;69937;52.420;10.538;2023-06-19T10:04:00;6.45;;;4.65;;
80576;SDS011;69937;52.420;10.538;2023-06-19T10:09:09;6.50;;;4.47;;
80576;SDS011;69937;52.420;10.538;2023-06-19T10:14:10;8.20;;;4.72;;
80576;SDS011;69937;52.420;10.538;2023-06-19T10:19:14;5.38;;;4.55;;
80576;SDS011;69937;52.420;10.538;2023-06-19T10:24:20;7.68;;;4.68;;
80576;SDS011;69937;52.420;10.538;2023-06-19T10:29:24;10.05;;;4.07;;
80576;SDS011;69937;52.420;10.538;2023-06-19T10:34:35;6.05;;;4.78;;
80576;SDS011;69937;52.420;10.538;2023-06-19T10:39:36;6.03;;;4.30;;
80576;SDS011;69937;52.420;10.538;2023-06-19T10:44:36;6.72;;;4.35;;
80576;SDS011;69937;52.420;10.538;2023-06-19T10:49:38;7.43;;;4.75;;
80576;SDS011;69937;52.420;10.538;2023-06-19T10:54:38;5.57;;;4.20;;
80576;SDS011;69937;52.420;10.538;2023-06-19T10:59:39;5.55;;;4.80;;
80576;SDS011;69937;52.420;10.538;2023-06-19T11:04:39;5.95;;;4.53;;
80576;SDS011;69937;52.420;10.538;2023-06-19T11:09:40;6.25;;;4.90;;
80576;SDS011;69937;52.420;10.538;2023-06-19T11:14:41;6.00;;;4.65;;
80576;SDS011;69937;52.420;10.538;2023-06-19T11:19:42;6.43;;;4.50;;
80576;SDS011;69937;52.420;10.538;2023-06-19T11:24:47;6.30;;;4.72;;
80576;SDS011;69937;52.420;10.538;2023-06-19T11:29:54;8.05;;;4.88;;
80576;SDS011;69937;52.420;10.538;2023-06-19T11:34:56;6.75;;;4.40;;
80576;SDS011;69937;52.420;10.538;2023-06-19T11:39:57;5.57;;;3.92;;
80576;SDS011;69937;52.420;10.538;2023-06-19T11:45:02;5.20;;;4.60;;
80576;SDS011;69937;52.420;10.538;2023-06-19T11:50:05;6.25;;;5.03;;
80576;SDS011;69937;52.420;10.538;2023-06-19T11:55:07;5.10;;;4.57;;
80576;SDS011;69937;52.420;10.538;2023-06-19T12:00:14;5.05;;;4.55;;
80576;SDS011;69937;52.420;10.538;2023-06-19T12:05:16;6.95;;;4.80;;
80576;SDS011;69937;52.420;10.538;2023-06-19T12:10:17;7.63;;;4.13;;
80576;SDS011;69937;52.420;10.538;2023-06-19T12:15:17;5.75;;;4.60;;
80576;SDS011;69937;52.420;10.538;2023-06-19T12:20:21;5.78;;;4.70;;
80576;SDS011;69937;52.420;10.538;2023-06-19T12:25:25;6.45;;;4.22;;
80576;SDS011;69937;52.420;10.538;2023-06-19T12:30:25;4.75;;;4.20;;
80576;SDS011;69937;52.420;10.538;2023-06-19T12:35:26;5.38;;;4.03;;
80576;SDS011;69937;52.420;10.538;2023-06-19T12:40:26;6.40;;;3.80;;
80576;SDS011;69937;52.420;10.538;2023-06-19T12:45:27;4.85;;;3.80;;
80576;SDS011;69937;52.420;10.538;2023-06-19T12:50:27;7.45;;;3.80;;
80576;SDS011;69937;52.420;10.538;2023-06-19T12:55:28;5.00;;;3.67;;
80576;SDS011;69937;52.420;10.538;2023-06-19T13:00:28;3.90;;;3.25;;
80576;SDS011;69937;52.420;10.538;2023-06-19T13:05:29;4.85;;;4.18;;
80576;SDS011;69937;52.420;10.538;2023-06-19T13:10:30;5.05;;;3.70;;
80576;SDS011;69937;52.420;10.538;2023-06-19T13:15:31;8.00;;;3.70;;
80576;SDS011;69937;52.420;10.538;2023-06-19T13:20:33;4.50;;;3.60;;
80576;SDS011;69937;52.420;10.538;2023-06-19T13:25:34;3.95;;;3.20;;
80576;SDS011;69937;52.420;10.538;2023-06-19T13:30:34;4.55;;;3.40;;
80576;SDS011;69937;52.420;10.538;2023-06-19T13:35:35;4.40;;;3.00;;
80576;SDS011;69937;52.420;10.538;2023-06-19T13:40:35;3.67;;;2.60;;
80576;SDS011;69937;52.420;10.538;2023-06-19T13:45:36;4.18;;;3.67;;
80576;SDS011;69937;52.420;10.538;2023-06-19T13:50:38;3.85;;;3.15;;
80576;SDS011;69937;52.420;10.538;2023-06-19T13:55:39;2.92;;;2.42;;
80576;SDS011;69937;52.420;10.538;2023-06-19T14:00:39;4.55;;;2.97;;
80576;SDS011;69937;52.420;10.538;2023-06-19T14:05:40;2.85;;;2.10;;
80576;SDS011;69937;52.420;10.538;2023-06-19T14:10:40;2.70;;;1.88;;
80576;SDS011;69937;52.420;10.538;2023-06-19T14:15:41;2.97;;;2.33;;
80576;SDS011;69937;52.420;10.538;2023-06-19T14:20:41;6.68;;;1.95;;
80576;SDS011;69937;52.420;10.538;2023-06-19T14:25:42;2.13;;;1.52;;
80576;SDS011;69937;52.420;10.538;2023-06-19T14:30:43;1.90;;;1.40;;
80576;SDS011;69937;52.420;10.538;2023-06-19T14:35:43;4.15;;;2.03;;
80576;SDS011;69937;52.420;10.538;2023-06-19T14:40:45;2.40;;;1.77;;
80576;SDS011;69937;52.420;10.538;2023-06-19T14:45:46;4.93;;;1.70;;
80576;SDS011;69937;52.420;10.538;2023-06-19T14:50:47;3.20;;;2.00;;
80576;SDS011;69937;52.420;10.538;2023-06-19T14:55:47;4.72;;;2.30;;
80576;SDS011;69937;52.420;10.538;2023-06-19T15:00:48;3.08;;;2.00;;
80576;SDS011;69937;52.420;10.538;2023-06-19T15:05:48;3.08;;;2.30;;
80576;SDS011;69937;52.420;10.538;2023-06-19T15:10:49;4.78;;;2.10;;
80576;SDS011;69937;52.420;10.538;2023-06-19T15:16:37;3.47;;;2.25;;
80576;SDS011;69937;52.420;10.538;2023-06-19T15:21:41;3.22;;;2.55;;
80576;SDS011;69937;52.420;10.538;2023-06-19T15:26:42;4.30;;;2.80;;
80576;SDS011;69937;52.420;10.538;2023-06-19T15:31:46;3.55;;;2.47;;
80576;SDS011;69937;52.420;10.538;2023-06-19T15:36:47;6.95;;;2.90;;
80576;SDS011;69937;52.420;10.538;2023-06-19T15:41:48;5.93;;;2.72;;
80576;SDS011;69937;52.420;10.538;2023-06-19T15:46:49;4.88;;;2.80;;
80576;SDS011;69937;52.420;10.538;2023-06-19T15:52:00;4.00;;;2.75;;
80576;SDS011;69937;52.420;10.538;2023-06-19T15:57:18;3.08;;;2.70;;
80576;SDS011;69937;52.420;10.538;2023-06-19T16:02:20;3.53;;;2.67;;
80576;SDS011;69937;52.420;10.538;2023-06-19T16:07:21;4.80;;;2.83;;
80576;SDS011;69937;52.420;10.538;2023-06-19T16:12:22;3.33;;;2.70;;
80576;SDS011;69937;52.420;10.538;2023-06-19T16:17:24;3.05;;;2.47;;
80576;SDS011;69937;52.420;10.538;2023-06-19T16:22:25;3.30;;;2.58;;
80576;SDS011;69937;52.420;10.538;2023-06-19T16:27:27;3.85;;;2.38;;
80576;SDS011;69937;52.420;10.538;2023-06-19T16:32:39;4.72;;;3.33;;
80576;SDS011;69937;52.420;10.538;2023-06-19T16:38:14;2.30;;;1.83;;
80576;SDS011;69937;52.420;10.538;2023-06-19T16:43:15;5.15;;;2.33;;
80576;SDS011;69937;52.420;10.538;2023-06-19T16:48:15;2.75;;;1.92;;
80576;SDS011;69937;52.420;10.538;2023-06-19T16:53:16;3.72;;;1.98;;
80576;SDS011;69937;52.420;10.538;2023-06-19T16:58:16;3.38;;;2.20;;
80576;SDS011;69937;52.420;10.538;2023-06-19T17:03:17;3.70;;;2.30;;
80576;SDS011;69937;52.420;10.538;2023-06-19T17:08:21;2.55;;;1.83;;
80576;SDS011;69937;52.420;10.538;2023-06-19T17:13:22;5.28;;;1.80;;
80576;SDS011;69937;52.420;10.538;2023-06-19T17:18:22;2.50;;;1.65;;
80576;SDS011;69937;52.420;10.538;2023-06-19T17:23:23;5.22;;;2.10;;
80576;SDS011;69937;52.420;10.538;2023-06-19T17:28:24;2.55;;;1.65;;
80576;SDS011;69937;52.420;10.538;2023-06-19T17:33:24;3.38;;;1.75;;
80576;SDS011;69937;52.420;10.538;2023-06-19T17:38:25;3.08;;;1.60;;
80576;SDS011;69937;52.420;10.538;2023-06-19T17:43:27;3.25;;;1.50;;
80576;SDS011;69937;52.420;10.538;2023-06-19T17:49:25;2.63;;;1.83;;
80576;SDS011;69937;52.420;10.538;2023-06-19T17:54:26;3.53;;;1.23;;
80576;SDS011;69937;52.420;10.538;2023-06-19T17:59:37;6.40;;;1.85;;
80576;SDS011;69937;52.420;10.538;2023-06-19T18:04:50;1.88;;;1.15;;
80576;SDS011;69937;52.420;10.538;2023-06-19T18:09:58;4.60;;;1.30;;
80576;SDS011;69937;52.420;10.538;2023-06-19T18:15:34;1.90;;;1.20;;
80576;SDS011;69937;52.420;10.538;2023-06-19T18:21:10;2.15;;;1.30;;
80576;SDS011;69937;52.420;10.538;2023-06-19T18:26:34;4.47;;;1.30;;
80576;SDS011;69937;52.420;10.538;2023-06-19T18:37:27;2.17;;;1.30;;
80576;SDS011;69937;52.420;10.538;2023-06-19T18:49:13;4.97;;;1.20;;
80576;SDS011;69937;52.420;10.538;2023-06-19T18:54:25;3.58;;;1.13;;
80576;SDS011;69937;52.420;10.538;2023-06-19T18:59:48;3.88;;;1.30;;
80576;SDS011;69937;52.420;10.538;2023-06-19T19:05:44;2.05;;;1.30;;
80576;SDS011;69937;52.420;10.538;2023-06-19T19:17:07;3.00;;;1.63;;
80576;SDS011;69937;52.420;10.538;2023-06-19T19:22:46;3.95;;;1.70;;
80576;SDS011;69937;52.420;10.538;2023-06-19T19:27:53;3.33;;;1.40;;
80576;SDS011;69937;52.420;10.538;2023-06-19T19:33:22;2.78;;;1.48;;
80576;SDS011;69937;52.420;10.538;2023-06-19T19:44:28;3.35;;;1.73;;
80576;SDS011;69937;52.420;10.538;2023-06-19T19:49:57;3.65;;;2.05;;
80576;SDS011;69937;52.420;10.538;2023-06-19T19:55:28;3.00;;;1.90;;
80576;SDS011;69937;52.420;10.538;2023-06-19T20:00:29;2.80;;;1.83;;
80576;SDS011;69937;52.420;10.538;2023-06-19T20:05:32;2.63;;;1.70;;
80576;SDS011;69937;52.420;10.538;2023-06-19T20:10:51;3.90;;;2.10;;
80576;SDS011;69937;52.420;10.538;2023-06-19T20:15:51;3.28;;;1.88;;
80576;SDS011;69937;52.420;10.538;2023-06-19T20:20:52;5.32;;;2.53;;
80576;SDS011;69937;52.420;10.538;2023-06-19T20:25:52;3.20;;;2.25;;
80576;SDS011;69937;52.420;10.538;2023-06-19T20:30:53;4.38;;;2.13;;
80576;SDS011;69937;52.420;10.538;2023-06-19T20:35:54;3.33;;;1.80;;
80576;SDS011;69937;52.420;10.538;2023-06-19T20:40:54;3.42;;;2.45;;
80576;SDS011;69937;52.420;10.538;2023-06-19T20:45:55;6.10;;;3.67;;
80576;SDS011;69937;52.420;10.538;2023-06-19T20:51:00;4.38;;;2.80;;
80576;SDS011;69937;52.420;10.538;2023-06-19T20:56:00;6.85;;;3.00;;
80576;SDS011;69937;52.420;10.538;2023-06-19T21:01:01;5.43;;;2.70;;
80576;SDS011;69937;52.420;10.538;2023-06-19T21:06:01;13.13;;;2.92;;
80576;SDS011;69937;52.420;10.538;2023-06-19T21:11:02;3.35;;;2.80;;
80576;SDS011;69937;52.420;10.538;2023-06-19T21:16:03;5.18;;;2.42;;
80576;SDS011;69937;52.420;10.538;2023-06-19T21:21:04;5.72;;;2.88;;
80576;SDS011;69937;52.420;10.538;2023-06-19T21:26:04;10.70;;;3.47;;
80576;SDS011;69937;52.420;10.538;2023-06-19T21:31:05;8.32;;;2.67;;
80576;SDS011;69937;52.420;10.538;2023-06-19T21:36:05;10.85;;;2.97;;
80576;SDS011;69937;52.420;10.538;2023-06-19T21:41:07;5.78;;;2.70;;
80576;SDS011;69937;52.420;10.538;2023-06-19T21:46:07;4.28;;;2.50;;
80576;SDS011;69937;52.420;10.538;2023-06-19T21:51:08;5.20;;;2.95;;
80576;SDS011;69937;52.420;10.538;2023-06-19T21:56:08;8.15;;;2.30;;
80576;SDS011;69937;52.420;10.538;2023-06-19T22:01:09;6.45;;;2.60;;
80576;SDS011;69937;52.420;10.538;2023-06-19T22:06:09;5.20;;;2.70;;
80576;SDS011;69937;52.420;10.538;2023-06-19T22:11:10;4.20;;;2.75;;
80576;SDS011;69937;52.420;10.538;2023-06-19T22:16:10;7.00;;;2.45;;
80576;SDS011;69937;52.420;10.538;2023-06-19T22:21:11;6.60;;;2.83;;
80576;SDS011;69937;52.420;10.538;2023-06-19T22:26:12;4.72;;;2.35;;
80576;SDS011;69937;52.420;10.538;2023-06-19T22:31:12;6.28;;;2.10;;
80576;SDS011;69937;52.420;10.538;2023-06-19T22:36:13;6.13;;;3.08;;
80576;SDS011;69937;52.420;10.538;2023-06-19T22:41:14;3.00;;;2.53;;
80576;SDS011;69937;52.420;10.538;2023-06-19T22:46:15;3.92;;;2.90;;
80576;SDS011;69937;52.420;10.538;2023-06-19T22:51:15;3.35;;;2.75;;
80576;SDS011;69937;52.420;10.538;2023-06-19T22:56:16;7.03;;;2.75;;
80576;SDS011;69937;52.420;10.538;2023-06-19T23:01:16;6.28;;;2.75;;
80576;SDS011;69937;52.420;10.538;2023-06-19T23:06:25;3.88;;;2.72;;
80576;SDS011;69937;52.420;10.538;2023-06-19T23:11:26;3.45;;;2.75;;
80576;SDS011;69937;52.420;10.538;2023-06-19T23:16:27;4.82;;;3.40;;
80576;SDS011;69937;52.420;10.538;2023-06-19T23:21:27;4.10;;;3.15;;
80576;SDS011;69937;52.420;10.538;2023-06-19T23:26:31;4.15;;;2.92;;
80576;SDS011;69937;52.420;10.538;2023-06-19T23:31:33;4.47;;;3.90;;
80576;SDS011;69937;52.420;10.538;2023-06-19T23:36:34;5.15;;;3.70;;
80576;SDS011;69937;52.420;10.538;2023-06-19T23:41:35;3.80;;;3.10;;
80576;SDS011;69937;52.420;10.538;2023-06-19T23:46:35;4.53;;;3.70;;
80576;SDS011;69937;52.420;10.538;2023-06-19T23:51:37;3.92;;;3.03;;
80576;SDS011;69937;52.420;10.538;2023-06-19T23:56:37;5.13;;;3.20;;
